Terminal Aerodrome Forecast
Issued by NWS

Home | Current Version | Previous Version | Graphics & Text | Print | Product List | Glossary On
Versions: 1 2 3 4 5 6 7 8 9 10
720
FTUS43 KTOP 211121
TAFMHK
TAF
KMHK 211121Z 2112/2212 07012KT P6SM BKN100
     FM211800 06014G20KT P6SM VCSH SCT040 BKN070
     FM212300 05012KT P6SM SHRA OVC035
     FM220300 03010KT 6SM SHRA OVC025
     FM221000 02008KT P6SM OVC030=

USA.gov is the U.S. government's official web portal to all federal, state and local government web resources and services.